Bolton Landing, New York
Current Conditions -  °F | °C
As of 12:53 PM on Monday 24 Nov 2014 (Local Time) from KGFL Reporting Station
Broken Clouds Broken Clouds  
Wind Chill: 66°   Ceiling: 2000
Heat Index: 66°   Visibility: 10mi
Dew Point: 58°   Wind: 15mph
Humidity: 75%   Direction: 180°S
Pressure: 29.45"   Gusts: 21mph
Location:  43.56°N, 73.66°W
Report Text: KGFL 241753Z AUTO 18013G18KT 10SM BKN020 19/14 A2945 RMK AO2 SLP976 60017 T01890144 10189 20067 58037
Loading
Personal Weather Stations






























Interactive Weather Map New forecast layout! Learn more

10-Day Weather Forecast

Advertisements
Track Severe Weather on mobile